Time;durP1;ratioP1;P1;durP2;ratioP2;P2;SDS_P1;SDS_P2;PMS_P1;PMS_P2;Temp;Humidity;BMP_temperature;BMP_pressure;BME280_temperature;BME280_humidity;BME280_pressure;Samples;Min_cycle;Max_cycle;Signal;HPM_P1;HPM_P2
2021/09/24 00:01:02;;;;;;;;;19.00;17.00;;;;;;;;5065114;28;47043;-78
2021/09/24 00:03:28;;;;;;;;;20.25;18.25;;;;;;;;5084559;28;45310;-78
2021/09/24 00:05:53;;;;;;;;;24.00;19.50;;;;;;;;5081898;28;45389;-78
2021/09/24 00:08:19;;;;;;;;;22.75;19.50;;;;;;;;5063685;28;45496;-79
2021/09/24 00:10:45;;;;;;;;;18.50;17.75;;;;;;;;5081888;28;46034;-79
2021/09/24 00:13:10;;;;;;;;;20.00;16.25;;;;;;;;5081769;28;45372;-79
2021/09/24 00:15:36;;;;;;;;;16.25;13.50;;;;;;;;5081940;28;45497;-79
2021/09/24 00:18:01;;;;;;;;;22.25;20.00;;;;;;;;5081243;28;45359;-78
2021/09/24 00:20:27;;;;;;;;;18.50;16.50;;;;;;;;5082020;28;46273;-79
2021/09/24 00:22:52;;;;;;;;;22.00;18.75;;;;;;;;5082334;28;45264;-79
2021/09/24 00:25:17;;;;;;;;;21.25;18.25;;;;;;;;5086157;28;45467;-78
2021/09/24 00:27:42;;;;;;;;;18.67;16.67;;;;;;;;5067563;28;46002;-78
2021/09/24 00:30:08;;;;;;;;;20.00;17.00;;;;;;;;5067511;28;47115;-79
2021/09/24 00:32:34;;;;;;;;;17.00;14.25;;;;;;;;5085674;28;45394;-77
2021/09/24 00:34:59;;;;;;;;;22.25;19.50;;;;;;;;5087920;28;45271;-78
2021/09/24 00:37:24;;;;;;;;;21.00;19.33;;;;;;;;5075679;28;45245;-78
2021/09/24 00:39:50;;;;;;;;;18.67;16.33;;;;;;;;5084364;28;45340;-78
2021/09/24 00:42:15;;;;;;;;;18.00;16.25;;;;;;;;5080945;28;45249;-78
2021/09/24 00:44:41;;;;;;;;;25.33;19.00;;;;;;;;5081421;28;45184;-79
2021/09/24 00:47:06;;;;;;;;;20.50;18.25;;;;;;;;5080759;28;45455;-79
2021/09/24 00:49:32;;;;;;;;;20.00;19.50;;;;;;;;5080691;28;46277;-78
2021/09/24 00:51:57;;;;;;;;;18.75;17.75;;;;;;;;5062564;28;45413;-78
2021/09/24 00:54:23;;;;;;;;;19.50;16.75;;;;;;;;5080997;28;45370;-79
2021/09/24 00:56:48;;;;;;;;;19.25;18.25;;;;;;;;5080862;28;45437;-78
2021/09/24 00:59:13;;;;;;;;;19.75;17.00;;;;;;;;5081114;28;45944;-79
2021/09/24 01:01:39;;;;;;;;;16.25;14.50;;;;;;;;5082310;28;45371;-78
2021/09/24 01:04:04;;;;;;;;;24.33;18.00;;;;;;;;5083348;28;45477;-78
2021/09/24 01:06:29;;;;;;;;;17.00;17.00;;;;;;;;5082230;28;45350;-78
2021/09/24 01:08:54;;;;;;;;;23.00;17.33;;;;;;;;5084729;28;45338;-78
2021/09/24 01:11:21;;;;;;;;;22.00;16.75;;;;;;;;5083734;28;45434;-78
2021/09/24 01:13:47;;;;;;;;;19.00;17.00;;;;;;;;5082886;28;45255;-78
2021/09/24 01:16:12;;;;;;;;;18.67;14.00;;;;;;;;5081148;28;45731;-78
2021/09/24 01:18:37;;;;;;;;;15.00;15.00;;;;;;;;5067576;28;46983;-78
2021/09/24 01:21:08;;;;;;;;;19.00;15.67;;;;;;;;5065472;28;45860;-78
2021/09/24 01:23:33;;;;;;;;;17.75;17.00;;;;;;;;5078858;28;45407;-79
2021/09/24 01:25:58;;;;;;;;;17.67;14.33;;;;;;;;5080320;28;45402;-79
2021/09/24 01:28:23;;;;;;;;;16.33;13.00;;;;;;;;5079841;28;45489;-79
2021/09/24 01:30:49;;;;;;;;;15.00;13.33;;;;;;;;5080225;28;45418;-79
2021/09/24 01:33:14;;;;;;;;;15.67;13.67;;;;;;;;5077308;28;46246;-79
2021/09/24 01:35:39;;;;;;;;;14.67;12.33;;;;;;;;5071642;28;45370;-79
2021/09/24 01:38:04;;;;;;;;;13.67;12.33;;;;;;;;5080184;28;45521;-79
2021/09/24 01:40:29;;;;;;;;;11.33;10.67;;;;;;;;5065529;28;45320;-79
2021/09/24 01:42:55;;;;;;;;;9.50;7.50;;;;;;;;5079725;28;45475;-79
2021/09/24 01:45:20;;;;;;;;;15.00;9.00;;;;;;;;5079719;28;45445;-79
2021/09/24 01:47:46;;;;;;;;;13.00;10.25;;;;;;;;5079395;28;45464;-79
2021/09/24 01:50:11;;;;;;;;;11.25;7.75;;;;;;;;5079529;28;45327;-79
2021/09/24 01:52:37;;;;;;;;;10.00;8.67;;;;;;;;5079859;28;45320;-78
2021/09/24 01:55:03;;;;;;;;;11.25;9.00;;;;;;;;5079741;28;45545;-79
2021/09/24 01:57:28;;;;;;;;;12.75;9.75;;;;;;;;5079105;28;46353;-79
2021/09/24 01:59:53;;;;;;;;;10.75;8.50;;;;;;;;5079688;28;45417;-79
2021/09/24 02:02:19;;;;;;;;;11.00;8.00;;;;;;;;5079455;28;45324;-79
2021/09/24 02:04:44;;;;;;;;;9.25;7.00;;;;;;;;5079350;28;45257;-79
2021/09/24 02:07:09;;;;;;;;;10.00;9.00;;;;;;;;5079521;28;45494;-78
2021/09/24 02:09:34;;;;;;;;;9.33;8.33;;;;;;;;5079613;28;45420;-79
2021/09/24 02:12:00;;;;;;;;;12.50;8.75;;;;;;;;5079648;28;45375;-79
2021/09/24 02:14:25;;;;;;;;;9.50;9.50;;;;;;;;5079213;28;45302;-79
2021/09/24 02:16:50;;;;;;;;;7.25;7.25;;;;;;;;5079159;28;45359;-79
2021/09/24 02:19:15;;;;;;;;;9.75;8.00;;;;;;;;5079243;28;45300;-79
2021/09/24 02:21:41;;;;;;;;;9.00;6.67;;;;;;;;5079258;28;45462;-79
2021/09/24 02:24:06;;;;;;;;;11.67;8.67;;;;;;;;5079390;28;45348;-79
2021/09/24 02:26:31;;;;;;;;;9.75;7.25;;;;;;;;5079057;28;46385;-79
2021/09/24 02:28:56;;;;;;;;;10.67;8.00;;;;;;;;5081700;28;45222;-79
2021/09/24 02:31:22;;;;;;;;;11.00;9.50;;;;;;;;5064630;28;45372;-79
2021/09/24 02:33:47;;;;;;;;;10.00;9.00;;;;;;;;5062263;28;45721;-79
2021/09/24 02:36:12;;;;;;;;;9.00;8.00;;;;;;;;5064591;28;48230;-79
2021/09/24 02:38:38;;;;;;;;;8.50;7.25;;;;;;;;5064504;28;45264;-79
2021/09/24 02:41:04;;;;;;;;;7.00;7.00;;;;;;;;5082857;28;45387;-80
2021/09/24 02:43:29;;;;;;;;;10.25;9.00;;;;;;;;5082466;28;45439;-79
2021/09/24 02:45:54;;;;;;;;;10.50;9.50;;;;;;;;5082425;28;46155;-79
2021/09/24 02:48:20;;;;;;;;;11.75;9.00;;;;;;;;5082047;28;45443;-79
2021/09/24 02:50:45;;;;;;;;;7.25;6.25;;;;;;;;5082475;28;45354;-79
2021/09/24 02:53:10;;;;;;;;;9.50;7.75;;;;;;;;5063965;28;45387;-80
2021/09/24 02:55:36;;;;;;;;;8.67;8.00;;;;;;;;5082476;28;45351;-80
2021/09/24 02:58:01;;;;;;;;;12.00;9.33;;;;;;;;5081941;28;45439;-79
2021/09/24 03:00:27;;;;;;;;;8.00;7.00;;;;;;;;5082693;28;45552;-79
2021/09/24 03:02:52;;;;;;;;;8.00;7.25;;;;;;;;5082115;28;45418;-79
2021/09/24 03:05:17;;;;;;;;;9.25;8.75;;;;;;;;5082383;28;45248;-79
2021/09/24 03:07:43;;;;;;;;;8.00;5.75;;;;;;;;5082283;28;45467;-79
2021/09/24 03:10:08;;;;;;;;;5.67;4.67;;;;;;;;5082547;28;45216;-79
2021/09/24 03:12:34;;;;;;;;;8.75;5.75;;;;;;;;5082213;28;45318;-80
2021/09/24 03:14:59;;;;;;;;;6.00;6.00;;;;;;;;5082153;28;46094;-79
2021/09/24 03:17:24;;;;;;;;;6.50;6.25;;;;;;;;5081756;28;45526;-79
2021/09/24 03:19:50;;;;;;;;;6.00;5.00;;;;;;;;5082262;28;45355;-79
2021/09/24 03:22:15;;;;;;;;;8.50;6.00;;;;;;;;5063712;28;45253;-79
2021/09/24 03:24:41;;;;;;;;;5.75;3.75;;;;;;;;5082123;28;45383;-79
2021/09/24 03:27:06;;;;;;;;;5.00;5.00;;;;;;;;5083012;28;45343;-79
2021/09/24 03:29:33;;;;;;;;;5.75;5.00;;;;;;;;5064968;28;45632;-79
2021/09/24 03:31:58;;;;;;;;;9.25;5.00;;;;;;;;5063369;28;45391;-79
2021/09/24 03:34:23;;;;;;;;;10.50;7.75;;;;;;;;5079880;28;45393;-79
2021/09/24 03:36:48;;;;;;;;;6.00;6.00;;;;;;;;5073179;28;45389;-79
2021/09/24 03:39:14;;;;;;;;;4.33;4.33;;;;;;;;5081483;28;45429;-79
2021/09/24 03:41:40;;;;;;;;;7.25;6.25;;;;;;;;5081198;28;45396;-79
2021/09/24 03:44:05;;;;;;;;;6.50;5.00;;;;;;;;5082282;28;45474;-79
2021/09/24 03:46:30;;;;;;;;;5.67;5.67;;;;;;;;5083299;28;45481;-79
2021/09/24 03:48:55;;;;;;;;;6.33;5.00;;;;;;;;5083301;28;45463;-79
2021/09/24 03:51:21;;;;;;;;;4.50;4.00;;;;;;;;5082929;28;45427;-79
2021/09/24 03:53:46;;;;;;;;;5.00;5.00;;;;;;;;5081472;28;46362;-79
2021/09/24 03:56:11;;;;;;;;;9.25;6.00;;;;;;;;5092598;28;45287;-79
2021/09/24 03:58:36;;;;;;;;;8.00;6.33;;;;;;;;5090829;28;45639;-79
2021/09/24 04:01:02;;;;;;;;;6.00;5.25;;;;;;;;5081947;28;45224;-79
2021/09/24 04:03:28;;;;;;;;;8.75;7.00;;;;;;;;5081259;28;45379;-79
2021/09/24 04:05:54;;;;;;;;;6.75;6.00;;;;;;;;5081572;28;45482;-79
2021/09/24 04:08:19;;;;;;;;;5.25;4.00;;;;;;;;5081627;28;45225;-79
2021/09/24 04:10:44;;;;;;;;;6.00;4.67;;;;;;;;5081557;28;45224;-79
2021/09/24 04:13:09;;;;;;;;;6.00;4.33;;;;;;;;5062914;28;47189;-79
2021/09/24 04:15:34;;;;;;;;;4.00;4.00;;;;;;;;5081508;28;45352;-79
2021/09/24 04:18:00;;;;;;;;;6.75;4.25;;;;;;;;5080872;28;45433;-79
2021/09/24 04:20:25;;;;;;;;;6.00;4.50;;;;;;;;5080933;28;45524;-79
2021/09/24 04:22:51;;;;;;;;;7.25;5.75;;;;;;;;5081020;28;45319;-79
2021/09/24 04:25:16;;;;;;;;;5.75;5.50;;;;;;;;5081261;28;45161;-79
2021/09/24 04:27:41;;;;;;;;;4.00;4.00;;;;;;;;5063164;28;45281;-79
2021/09/24 04:30:07;;;;;;;;;8.50;6.00;;;;;;;;5062835;28;45341;-79
2021/09/24 04:32:32;;;;;;;;;5.50;5.00;;;;;;;;5080709;28;45878;-79
2021/09/24 04:35:00;;;;;;;;;4.50;4.50;;;;;;;;5080634;28;45895;-79
2021/09/24 04:37:26;;;;;;;;;24.00;17.25;;;;;;;;5079625;28;45577;-79
2021/09/24 04:39:57;;;;;;;;;20.00;17.00;;;;;;;;5081286;28;45525;-79
2021/09/24 04:42:22;;;;;;;;;16.50;12.00;;;;;;;;5080853;28;45512;-80
2021/09/24 04:44:47;;;;;;;;;21.25;19.25;;;;;;;;5062625;28;45261;-79
2021/09/24 04:47:13;;;;;;;;;17.50;17.00;;;;;;;;5080415;28;45811;-80
2021/09/24 04:49:38;;;;;;;;;14.33;11.67;;;;;;;;5081193;28;45661;-79
2021/09/24 04:52:03;;;;;;;;;6.00;6.00;;;;;;;;5080361;27;45540;-79
2021/09/24 04:54:29;;;;;;;;;4.75;4.75;;;;;;;;5076813;28;45362;-80
2021/09/24 04:56:54;;;;;;;;;6.75;5.25;;;;;;;;5081578;28;45510;-79
2021/09/24 04:59:19;;;;;;;;;6.25;5.50;;;;;;;;5082372;27;45613;-79
2021/09/24 05:01:44;;;;;;;;;6.00;5.00;;;;;;;;5081046;27;45379;-79
2021/09/24 05:04:10;;;;;;;;;7.67;5.00;;;;;;;;5075560;27;45478;-79
2021/09/24 05:06:35;;;;;;;;;5.00;5.00;;;;;;;;5080829;27;45378;-80
2021/09/24 05:09:00;;;;;;;;;8.25;5.00;;;;;;;;5089085;27;45362;-79
2021/09/24 05:11:25;;;;;;;;;4.33;4.33;;;;;;;;5082087;27;46307;-79
2021/09/24 05:13:50;;;;;;;;;5.33;5.00;;;;;;;;5080430;28;45415;-79
2021/09/24 05:16:16;;;;;;;;;6.00;4.33;;;;;;;;5093283;27;45421;-79
2021/09/24 05:18:44;;;;;;;;;7.75;5.00;;;;;;;;5088253;27;45330;-80
2021/09/24 05:21:09;;;;;;;;;6.00;6.00;;;;;;;;5080088;28;45331;-80
2021/09/24 05:23:34;;;;;;;;;6.25;5.75;;;;;;;;5079924;28;45327;-79
2021/09/24 05:26:00;;;;;;;;;6.00;6.00;;;;;;;;5087423;27;45506;-80
2021/09/24 05:28:25;;;;;;;;;4.00;4.00;;;;;;;;5080526;27;45634;-79
2021/09/24 05:30:50;;;;;;;;;7.25;5.25;;;;;;;;5079971;28;45605;-79
2021/09/24 05:33:16;;;;;;;;;7.00;6.00;;;;;;;;5091014;27;45432;-80
2021/09/24 05:35:41;;;;;;;;;6.25;6.00;;;;;;;;5085274;27;45158;-80
2021/09/24 05:38:06;;;;;;;;;7.50;7.50;;;;;;;;5071110;27;45760;-82
2021/09/24 05:40:32;;;;;;;;;7.50;5.75;;;;;;;;5080525;27;46407;-79
2021/09/24 05:42:57;;;;;;;;;8.00;6.33;;;;;;;;5080047;28;45600;-81
2021/09/24 05:45:22;;;;;;;;;5.33;5.00;;;;;;;;5081957;27;45429;-81
2021/09/24 05:47:48;;;;;;;;;5.50;5.00;;;;;;;;5079262;28;45442;-82
2021/09/24 05:50:14;;;;;;;;;3.25;3.25;;;;;;;;5083981;27;45560;-80
2021/09/24 05:52:41;;;;;;;;;8.75;7.00;;;;;;;;5081760;27;45435;-81
2021/09/24 05:55:07;;;;;;;;;7.00;6.25;;;;;;;;5076348;27;45763;-78
2021/09/24 05:57:32;;;;;;;;;8.00;6.50;;;;;;;;5081531;27;45437;-78
2021/09/24 05:59:57;;;;;;;;;8.67;7.00;;;;;;;;5080404;28;46148;-77
2021/09/24 06:02:22;;;;;;;;;6.00;6.00;;;;;;;;5079549;28;45319;-77
2021/09/24 06:04:48;;;;;;;;;6.00;5.75;;;;;;;;5080315;28;45421;-78
2021/09/24 06:07:13;;;;;;;;;8.00;6.33;;;;;;;;5079818;28;45422;-78
2021/09/24 06:09:38;;;;;;;;;5.67;5.67;;;;;;;;5060436;28;48366;-79
2021/09/24 06:12:03;;;;;;;;;8.33;8.33;;;;;;;;5077889;28;45404;-79
2021/09/24 06:14:29;;;;;;;;;12.75;10.25;;;;;;;;5079553;28;45503;-79
2021/09/24 06:16:56;;;;;;;;;12.00;8.67;;;;;;;;5083327;28;45302;-81
2021/09/24 06:19:22;;;;;;;;;11.00;8.50;;;;;;;;5083959;28;45256;-79
2021/09/24 06:21:47;;;;;;;;;14.00;9.00;;;;;;;;5081490;28;45391;-81
2021/09/24 06:24:12;;;;;;;;;10.75;8.75;;;;;;;;5080610;28;45425;-80
2021/09/24 06:26:38;;;;;;;;;10.67;9.33;;;;;;;;5079828;28;45456;-78
2021/09/24 06:29:03;;;;;;;;;10.25;8.75;;;;;;;;5079236;28;46200;-79
2021/09/24 06:31:28;;;;;;;;;8.25;7.50;;;;;;;;5078529;28;45343;-79
2021/09/24 06:33:54;;;;;;;;;13.25;6.75;;;;;;;;5078054;28;46377;-79
2021/09/24 06:36:21;;;;;;;;;10.25;8.50;;;;;;;;5060552;28;45441;-78
2021/09/24 06:38:46;;;;;;;;;11.00;9.75;;;;;;;;5066942;28;47190;-80
2021/09/24 06:41:11;;;;;;;;;13.25;11.25;;;;;;;;5078025;28;45424;-79
2021/09/24 06:43:37;;;;;;;;;13.25;10.25;;;;;;;;5078637;28;45322;-79
2021/09/24 06:46:02;;;;;;;;;13.67;9.33;;;;;;;;5078721;28;45513;-79
2021/09/24 06:48:27;;;;;;;;;16.00;11.75;;;;;;;;5078280;28;45480;-79
2021/09/24 06:50:52;;;;;;;;;11.50;11.50;;;;;;;;5078588;28;45146;-79
2021/09/24 06:53:18;;;;;;;;;15.33;11.67;;;;;;;;5079224;28;45457;-80
2021/09/24 06:55:43;;;;;;;;;15.67;11.33;;;;;;;;5060731;28;45296;-79
2021/09/24 06:58:08;;;;;;;;;14.25;10.75;;;;;;;;5078816;28;45349;-79
2021/09/24 07:00:33;;;;;;;;;12.75;11.50;;;;;;;;5079403;28;45239;-79
2021/09/24 07:02:59;;;;;;;;;15.00;11.50;;;;;;;;5078938;28;45275;-79
2021/09/24 07:05:24;;;;;;;;;15.33;13.67;;;;;;;;5061578;28;45936;-78
2021/09/24 07:07:49;;;;;;;;;13.75;9.75;;;;;;;;5078510;28;45665;-78
2021/09/24 07:10:14;;;;;;;;;15.67;11.67;;;;;;;;5079088;28;45453;-78
2021/09/24 07:12:41;;;;;;;;;14.50;12.75;;;;;;;;5080655;28;45482;-78
2021/09/24 07:15:07;;;;;;;;;12.50;11.75;;;;;;;;5066345;28;45593;-79
2021/09/24 07:17:32;;;;;;;;;17.00;14.25;;;;;;;;5068455;28;48059;-77
2021/09/24 07:19:57;;;;;;;;;13.00;12.00;;;;;;;;5063670;28;45493;-78
2021/09/24 07:22:23;;;;;;;;;17.00;16.25;;;;;;;;5081285;28;45311;-77
2021/09/24 07:24:49;;;;;;;;;13.75;12.25;;;;;;;;5080954;28;45371;-78
2021/09/24 07:27:14;;;;;;;;;15.50;13.50;;;;;;;;5063185;28;47102;-78
2021/09/24 07:29:40;;;;;;;;;17.00;14.50;;;;;;;;5081764;28;45312;-78
2021/09/24 07:32:05;;;;;;;;;19.50;15.25;;;;;;;;5081794;28;46076;-77
2021/09/24 07:34:30;;;;;;;;;26.50;19.00;;;;;;;;5081881;28;45461;-77
2021/09/24 07:36:55;;;;;;;;;23.00;19.00;;;;;;;;5077738;28;45407;-78
2021/09/24 07:39:21;;;;;;;;;24.75;16.75;;;;;;;;5079275;28;45418;-78
2021/09/24 07:41:46;;;;;;;;;20.25;14.75;;;;;;;;5081502;28;46612;-78
2021/09/24 07:44:11;;;;;;;;;17.33;15.33;;;;;;;;5082030;28;45360;-80
2021/09/24 07:46:37;;;;;;;;;18.00;16.00;;;;;;;;5081483;28;45391;-80
2021/09/24 07:49:03;;;;;;;;;22.67;17.33;;;;;;;;5063276;28;45464;-79
2021/09/24 07:51:29;;;;;;;;;20.50;16.25;;;;;;;;5081679;28;45427;-80
2021/09/24 07:53:54;;;;;;;;;42.25;31.75;;;;;;;;5081593;28;45375;-79
2021/09/24 07:56:19;;;;;;;;;53.50;43.00;;;;;;;;5080802;28;45502;-80
2021/09/24 07:58:45;;;;;;;;;64.25;46.75;;;;;;;;5081255;28;45607;-80
2021/09/24 08:01:10;;;;;;;;;61.50;44.50;;;;;;;;5081547;28;45225;-79
2021/09/24 08:03:36;;;;;;;;;54.25;40.50;;;;;;;;5081370;28;45338;-79
2021/09/24 08:06:01;;;;;;;;;70.25;49.75;;;;;;;;5081229;28;45776;-80
2021/09/24 08:08:26;;;;;;;;;74.50;58.25;;;;;;;;5081547;28;45383;-80
2021/09/24 08:10:52;;;;;;;;;79.00;65.25;;;;;;;;5081770;28;45221;-80
2021/09/24 08:13:17;;;;;;;;;87.25;72.25;;;;;;;;5081321;28;45534;-79
2021/09/24 08:15:43;;;;;;;;;67.50;48.75;;;;;;;;5062886;28;47521;-79
2021/09/24 08:18:09;;;;;;;;;68.00;52.25;;;;;;;;5080750;28;45442;-80
2021/09/24 08:20:34;;;;;;;;;52.00;40.25;;;;;;;;5081067;28;45585;-80
2021/09/24 08:22:59;;;;;;;;;44.00;35.00;;;;;;;;5081279;28;45530;-80
2021/09/24 08:25:25;;;;;;;;;42.67;32.33;;;;;;;;5081179;28;45998;-80
2021/09/24 08:27:50;;;;;;;;;35.67;27.33;;;;;;;;5081371;28;45439;-80
2021/09/24 08:30:16;;;;;;;;;24.67;21.33;;;;;;;;5081197;28;45732;-80
2021/09/24 08:32:42;;;;;;;;;24.25;20.25;;;;;;;;5080830;28;45478;-80
2021/09/24 08:35:09;;;;;;;;;30.75;21.50;;;;;;;;5080748;28;46040;-80
2021/09/24 08:37:35;;;;;;;;;24.50;19.00;;;;;;;;5078527;28;45320;-80
2021/09/24 08:40:00;;;;;;;;;25.50;19.75;;;;;;;;5080397;28;45291;-80
2021/09/24 08:42:26;;;;;;;;;25.00;21.25;;;;;;;;5080926;28;45513;-80
2021/09/24 08:44:51;;;;;;;;;27.25;21.25;;;;;;;;5055933;28;46330;-79
2021/09/24 08:47:17;;;;;;;;;22.50;18.25;;;;;;;;5080387;28;46225;-79
2021/09/24 08:49:43;;;;;;;;;21.00;19.00;;;;;;;;5080806;28;45465;-80
2021/09/24 08:52:08;;;;;;;;;17.25;16.00;;;;;;;;5080713;28;45453;-80
2021/09/24 08:54:34;;;;;;;;;18.33;16.67;;;;;;;;5080706;28;46287;-80
2021/09/24 08:56:59;;;;;;;;;23.00;16.50;;;;;;;;5080351;28;45307;-80
2021/09/24 08:59:24;;;;;;;;;18.00;18.00;;;;;;;;5080835;28;45334;-79
2021/09/24 09:01:56;;;;;;;;;19.25;18.75;;;;;;;;5080476;28;45417;-80
2021/09/24 09:04:32;;;;;;;;;19.75;18.50;;;;;;;;5080650;28;45292;-80
2021/09/24 09:07:05;;;;;;;;;21.00;16.75;;;;;;;;5062216;28;45397;-80
2021/09/24 09:09:37;;;;;;;;;29.75;20.50;;;;;;;;5080643;28;45376;-79
2021/09/24 09:12:16;;;;;;;;;24.75;16.75;;;;;;;;5080394;28;45283;-80
2021/09/24 09:14:42;;;;;;;;;19.75;17.75;;;;;;;;5077363;28;45314;-80
2021/09/24 09:17:27;;;;;;;;;19.50;15.00;;;;;;;;5080323;28;45264;-80
2021/09/24 09:20:13;;;;;;;;;20.00;16.50;;;;;;;;5062021;28;45497;-79
2021/09/24 09:22:39;;;;;;;;;19.25;16.50;;;;;;;;5080135;28;45540;-80
2021/09/24 09:25:05;;;;;;;;;23.25;18.75;;;;;;;;5080020;28;45389;-80
2021/09/24 09:27:30;;;;;;;;;20.00;16.50;;;;;;;;5080280;28;45397;-80
2021/09/24 09:29:57;;;;;;;;;23.50;17.00;;;;;;;;5080082;28;45465;-80
2021/09/24 09:32:23;;;;;;;;;17.25;16.00;;;;;;;;5080014;28;45374;-80
2021/09/24 09:34:48;;;;;;;;;17.00;14.50;;;;;;;;5079850;28;45323;-80
2021/09/24 09:37:14;;;;;;;;;19.50;15.25;;;;;;;;5079643;28;45335;-80
2021/09/24 09:39:40;;;;;;;;;16.00;14.00;;;;;;;;5065951;28;45363;-80
2021/09/24 09:42:05;;;;;;;;;21.25;16.25;;;;;;;;5060869;28;45500;-80
2021/09/24 09:44:31;;;;;;;;;17.00;15.00;;;;;;;;5079919;28;45315;-80
2021/09/24 09:46:57;;;;;;;;;18.25;15.00;;;;;;;;5079295;28;45303;-80
2021/09/24 09:49:26;;;;;;;;;15.50;13.00;;;;;;;;5079934;28;45604;-80
2021/09/24 09:52:05;;;;;;;;;17.75;14.00;;;;;;;;5079515;28;45406;-80
2021/09/24 09:54:31;;;;;;;;;16.50;13.25;;;;;;;;5079597;28;46481;-79
2021/09/24 09:57:13;;;;;;;;;20.75;15.00;;;;;;;;5061400;28;45355;-80
2021/09/24 09:59:38;;;;;;;;;16.00;13.00;;;;;;;;5079560;28;45422;-80
2021/09/24 10:02:11;;;;;;;;;17.00;15.50;;;;;;;;5079716;28;45283;-80
2021/09/24 10:04:46;;;;;;;;;19.25;16.00;;;;;;;;5079308;28;45489;-80
2021/09/24 10:07:13;;;;;;;;;16.50;14.00;;;;;;;;5079804;28;45407;-80
2021/09/24 10:09:38;;;;;;;;;21.50;17.50;;;;;;;;5079486;28;45239;-80
2021/09/24 10:12:17;;;;;;;;;24.25;17.00;;;;;;;;5079807;28;45257;-80
2021/09/24 10:14:42;;;;;;;;;16.25;13.25;;;;;;;;5076700;28;45516;-80
2021/09/24 10:17:08;;;;;;;;;24.67;18.00;;;;;;;;5080061;28;45570;-80
2021/09/24 10:19:33;;;;;;;;;18.75;15.25;;;;;;;;5081725;28;45370;-80
2021/09/24 10:21:58;;;;;;;;;18.75;14.25;;;;;;;;5093617;28;44794;-80
2021/09/24 10:24:23;;;;;;;;;18.33;14.00;;;;;;;;5085606;28;45564;-80
2021/09/24 10:26:54;;;;;;;;;19.00;13.67;;;;;;;;5079544;28;45488;-80
2021/09/24 10:29:22;;;;;;;;;13.50;13.25;;;;;;;;5080258;28;45404;-80
2021/09/24 10:31:48;;;;;;;;;18.75;15.75;;;;;;;;5079402;28;45453;-80
2021/09/24 10:34:16;;;;;;;;;15.50;13.25;;;;;;;;5079547;28;45329;-80
2021/09/24 10:36:47;;;;;;;;;19.00;15.00;;;;;;;;5079290;28;45479;-80
2021/09/24 10:39:30;;;;;;;;;19.75;15.25;;;;;;;;5076009;28;45449;-80
2021/09/24 10:42:14;;;;;;;;;13.25;13.00;;;;;;;;5077960;28;46378;-80
2021/09/24 10:44:58;;;;;;;;;15.25;13.25;;;;;;;;5060898;28;48470;-80
2021/09/24 10:47:42;;;;;;;;;14.25;13.50;;;;;;;;5075800;28;45356;-81
2021/09/24 10:50:26;;;;;;;;;12.75;10.25;;;;;;;;5062139;28;45245;-80
2021/09/24 10:53:10;;;;;;;;;14.50;11.00;;;;;;;;5082709;28;45457;-80
2021/09/24 10:55:35;;;;;;;;;14.75;12.25;;;;;;;;5081924;28;46257;-81
2021/09/24 10:58:01;;;;;;;;;12.75;12.00;;;;;;;;5082240;28;45340;-81
2021/09/24 11:00:27;;;;;;;;;16.75;13.75;;;;;;;;5081909;28;45365;-81
2021/09/24 11:03:09;;;;;;;;;13.00;12.50;;;;;;;;5081976;28;45553;-81
2021/09/24 11:05:57;;;;;;;;;12.00;12.00;;;;;;;;5083107;28;46144;-80
2021/09/24 11:08:36;;;;;;;;;13.50;12.00;;;;;;;;5078340;28;45370;-80
2021/09/24 11:11:01;;;;;;;;;13.00;10.00;;;;;;;;5082102;28;45437;-80
2021/09/24 11:13:26;;;;;;;;;11.75;10.00;;;;;;;;5082402;28;45390;-81
2021/09/24 11:16:02;;;;;;;;;15.00;11.75;;;;;;;;5082026;28;45212;-80
2021/09/24 11:18:43;;;;;;;;;13.25;9.25;;;;;;;;5066062;28;45426;-81
2021/09/24 11:21:08;;;;;;;;;12.25;12.00;;;;;;;;5064193;28;45476;-81
2021/09/24 11:23:35;;;;;;;;;11.75;10.00;;;;;;;;5062532;28;45475;-79
2021/09/24 11:26:13;;;;;;;;;11.75;10.00;;;;;;;;5066716;28;46423;-81
2021/09/24 11:28:39;;;;;;;;;13.50;10.25;;;;;;;;5071071;28;45644;-80
2021/09/24 11:31:04;;;;;;;;;12.25;10.00;;;;;;;;5062796;28;45696;-80
2021/09/24 11:33:40;;;;;;;;;12.50;11.25;;;;;;;;5064435;28;45905;-81
2021/09/24 11:36:05;;;;;;;;;10.00;8.75;;;;;;;;5062081;28;46256;-81
2021/09/24 11:38:31;;;;;;;;;12.75;10.75;;;;;;;;5062982;28;45429;-81
2021/09/24 11:40:57;;;;;;;;;12.50;10.25;;;;;;;;5062891;28;45440;-80
2021/09/24 11:43:33;;;;;;;;;14.75;12.50;;;;;;;;5066216;28;45875;-81
2021/09/24 11:46:00;;;;;;;;;9.75;9.75;;;;;;;;5063326;28;45439;-81
2021/09/24 11:48:26;;;;;;;;;14.00;12.00;;;;;;;;5068774;28;45285;-81
2021/09/24 11:50:52;;;;;;;;;9.75;9.50;;;;;;;;5065437;28;45266;-81
2021/09/24 11:53:17;;;;;;;;;12.00;11.50;;;;;;;;5070074;28;45273;-81
2021/09/24 11:55:45;;;;;;;;;12.67;11.00;;;;;;;;5081512;28;45395;-81
2021/09/24 11:58:10;;;;;;;;;16.75;12.75;;;;;;;;5081269;28;45793;-80
2021/09/24 12:00:40;;;;;;;;;10.00;7.00;;;;;;;;5081456;28;45395;-81
2021/09/24 12:03:09;;;;;;;;;11.25;11.25;;;;;;;;5080946;28;45472;-81
2021/09/24 12:05:35;;;;;;;;;13.75;11.00;;;;;;;;5081548;28;45385;-81
2021/09/24 12:08:00;;;;;;;;;14.50;13.25;;;;;;;;5081379;28;45576;-81
2021/09/24 12:10:27;;;;;;;;;16.50;12.50;;;;;;;;5081692;28;45466;-81
2021/09/24 12:13:04;;;;;;;;;10.25;9.50;;;;;;;;5062922;28;46157;-80
2021/09/24 12:15:47;;;;;;;;;14.00;11.25;;;;;;;;5081216;28;46474;-80
2021/09/24 12:18:23;;;;;;;;;13.50;11.50;;;;;;;;5083358;28;45423;-82
2021/09/24 12:20:57;;;;;;;;;10.00;10.00;;;;;;;;5090926;28;45435;-79
2021/09/24 12:23:23;;;;;;;;;11.50;9.25;;;;;;;;5082043;28;45288;-80
2021/09/24 12:25:59;;;;;;;;;13.50;10.75;;;;;;;;5063745;28;47649;-79
2021/09/24 12:28:24;;;;;;;;;12.50;10.75;;;;;;;;5081775;28;45446;-80
2021/09/24 12:30:50;;;;;;;;;14.33;11.00;;;;;;;;5082273;28;45434;-80
2021/09/24 12:33:15;;;;;;;;;13.33;11.00;;;;;;;;5081524;28;45378;-81
2021/09/24 12:35:41;;;;;;;;;12.75;10.00;;;;;;;;5081775;28;46037;-80
2021/09/24 12:38:25;;;;;;;;;11.50;10.50;;;;;;;;5081876;28;45305;-80
2021/09/24 12:41:05;;;;;;;;;11.00;9.50;;;;;;;;5082465;28;45544;-80
2021/09/24 12:43:32;;;;;;;;;13.25;11.25;;;;;;;;5080179;28;45612;-78
2021/09/24 12:45:58;;;;;;;;;12.75;10.50;;;;;;;;5083248;28;46224;-79
2021/09/24 12:48:23;;;;;;;;;11.25;11.25;;;;;;;;5085010;28;45382;-82
2021/09/24 12:50:49;;;;;;;;;11.33;8.00;;;;;;;;5087008;28;45327;-81
2021/09/24 12:53:18;;;;;;;;;10.00;8.25;;;;;;;;5086287;28;45287;-80
2021/09/24 12:55:43;;;;;;;;;11.25;8.75;;;;;;;;5067741;28;47295;-80
2021/09/24 12:58:11;;;;;;;;;10.50;9.50;;;;;;;;5085664;28;45311;-79
2021/09/24 13:00:36;;;;;;;;;10.50;9.50;;;;;;;;5085535;28;45367;-79
2021/09/24 13:03:03;;;;;;;;;13.75;12.25;;;;;;;;5082689;28;45432;-80
2021/09/24 13:05:29;;;;;;;;;10.25;10.25;;;;;;;;5082839;28;45261;-80
2021/09/24 13:07:54;;;;;;;;;11.00;8.50;;;;;;;;5063690;28;46050;-80
2021/09/24 13:10:19;;;;;;;;;14.25;10.50;;;;;;;;5082036;28;45552;-80
2021/09/24 13:12:45;;;;;;;;;15.75;12.50;;;;;;;;5080126;28;45251;-80
2021/09/24 13:15:11;;;;;;;;;15.00;11.50;;;;;;;;5080527;28;45768;-80
2021/09/24 13:17:37;;;;;;;;;9.50;9.50;;;;;;;;5061854;28;45639;-80
2021/09/24 13:20:03;;;;;;;;;14.00;12.75;;;;;;;;5082671;28;45370;-81
2021/09/24 13:22:28;;;;;;;;;10.00;9.25;;;;;;;;5050315;28;46422;-81
2021/09/24 13:24:53;;;;;;;;;12.00;9.25;;;;;;;;5040589;28;46631;-80
2021/09/24 13:27:18;;;;;;;;;13.33;11.33;;;;;;;;5041671;28;45531;-80
2021/09/24 13:29:47;;;;;;;;;9.75;9.75;;;;;;;;5042038;28;45421;-80
2021/09/24 13:32:14;;;;;;;;;12.75;10.25;;;;;;;;5042012;28;45264;-80
2021/09/24 13:34:39;;;;;;;;;10.25;9.75;;;;;;;;5039234;28;46387;-80
2021/09/24 13:37:05;;;;;;;;;12.00;10.00;;;;;;;;5040588;28;45653;-80
2021/09/24 13:39:30;;;;;;;;;12.25;7.75;;;;;;;;5040771;28;45315;-81
2021/09/24 13:41:55;;;;;;;;;12.00;10.25;;;;;;;;5039854;28;45312;-81
2021/09/24 13:44:22;;;;;;;;;14.00;9.67;;;;;;;;5031516;28;45919;-81
2021/09/24 13:46:47;;;;;;;;;11.75;9.50;;;;;;;;5039423;28;45538;-81
2021/09/24 13:49:12;;;;;;;;;11.50;7.50;;;;;;;;5039367;28;45421;-81
2021/09/24 13:51:37;;;;;;;;;11.00;10.00;;;;;;;;5039584;28;45433;-82
2021/09/24 13:54:03;;;;;;;;;13.75;10.75;;;;;;;;5039116;28;45580;-83
2021/09/24 13:56:28;;;;;;;;;12.25;10.75;;;;;;;;5038106;28;45433;-84
2021/09/24 13:58:53;;;;;;;;;7.50;5.00;;;;;;;;5030548;28;45489;-82
2021/09/24 14:01:19;;;;;;;;;9.75;9.75;;;;;;;;5078283;27;45488;-82
2021/09/24 14:03:44;;;;;;;;;12.25;9.75;;;;;;;;5039110;28;45402;-82
2021/09/24 14:06:09;;;;;;;;;8.00;8.00;;;;;;;;5039403;28;45446;-82
2021/09/24 14:08:36;;;;;;;;;11.75;11.25;;;;;;;;5071819;28;45302;-82
2021/09/24 14:11:01;;;;;;;;;13.25;10.75;;;;;;;;5039144;28;45339;-81
2021/09/24 14:13:27;;;;;;;;;10.25;10.00;;;;;;;;5074469;28;47286;-81
2021/09/24 14:15:54;;;;;;;;;12.25;10.25;;;;;;;;5041200;28;45452;-82
2021/09/24 14:18:19;;;;;;;;;10.75;10.50;;;;;;;;5073669;27;45220;-81
2021/09/24 14:20:44;;;;;;;;;9.75;9.00;;;;;;;;5077486;27;45520;-81
2021/09/24 14:23:10;;;;;;;;;6.50;6.25;;;;;;;;5055394;28;45298;-82